createdAt,value
2022-08-04T00:02:42.018Z,6.32
2022-08-04T00:08:01.777Z,6.53
2022-08-04T00:10:28.935Z,7.75
2022-08-04T00:12:56.155Z,7.37
2022-08-04T00:15:24.167Z,8.67
2022-08-04T00:20:43.277Z,8.10
2022-08-04T00:23:10.729Z,10.85
2022-08-04T00:25:41.404Z,13.65
2022-08-04T00:28:08.218Z,8.98
2022-08-04T00:30:34.623Z,9.10
2022-08-04T00:33:02.246Z,6.35
2022-08-04T00:35:29.284Z,7.07
2022-08-04T00:37:56.023Z,6.13
2022-08-04T00:40:29.013Z,6.80
2022-08-04T00:43:24.507Z,6.32
2022-08-04T00:46:17.343Z,6.00
2022-08-04T00:49:05.800Z,8.45
2022-08-04T00:51:32.128Z,9.52
2022-08-04T00:54:06.389Z,7.50
2022-08-04T00:56:57.391Z,7.40
2022-08-04T00:59:51.861Z,8.38
2022-08-04T01:02:39.622Z,7.03
2022-08-04T01:10:22.242Z,6.57
2022-08-04T01:12:54.707Z,8.05
2022-08-04T01:15:59.283Z,8.38
2022-08-04T01:19:05.719Z,8.77
2022-08-04T01:22:03.242Z,7.53
2022-08-04T01:24:30.753Z,9.50
2022-08-04T01:27:26.366Z,10.00
2022-08-04T01:29:58.983Z,7.25
2022-08-04T01:32:36.475Z,8.77
2022-08-04T01:35:15.301Z,6.38
2022-08-04T01:38:22.116Z,10.43
2022-08-04T01:40:52.943Z,11.60
2022-08-04T01:43:20.327Z,11.45
2022-08-04T01:45:51.240Z,8.48
2022-08-04T01:48:24.854Z,8.60
2022-08-04T01:50:57.806Z,8.07
2022-08-04T01:53:30.637Z,10.65
2022-08-04T01:55:58.155Z,9.35
2022-08-04T01:58:25.305Z,8.52
2022-08-04T02:01:09.511Z,11.20
2022-08-04T02:04:18.402Z,9.15
2022-08-04T02:06:58.043Z,9.63
2022-08-04T02:09:55.029Z,7.30
2022-08-04T02:12:52.983Z,11.90
2022-08-04T02:15:25.117Z,8.35
2022-08-04T02:18:04.877Z,9.65
2022-08-04T02:20:35.616Z,7.75
2022-08-04T02:23:04.568Z,10.43
2022-08-04T02:25:39.455Z,10.02
2022-08-04T02:28:21.585Z,9.10
2022-08-04T02:31:02.983Z,9.50
2022-08-04T02:33:42.072Z,11.75
2022-08-04T02:36:13.761Z,13.32
2022-08-04T02:38:51.472Z,11.20
2022-08-04T02:41:21.750Z,9.30
2022-08-04T02:43:50.814Z,9.35
2022-08-04T02:46:20.378Z,11.30
2022-08-04T02:51:16.481Z,9.90
2022-08-04T02:53:43.867Z,10.30
2022-08-04T02:56:12.742Z,6.72
2022-08-04T02:58:42.607Z,8.57
2022-08-04T03:01:09.022Z,7.93
2022-08-04T03:03:51.424Z,7.30
2022-08-04T03:06:28.263Z,6.82
2022-08-04T03:09:36.839Z,10.85
2022-08-04T03:12:42.327Z,8.73
2022-08-04T03:15:35.008Z,6.00
2022-08-04T03:18:27.832Z,9.15
2022-08-04T03:21:25.288Z,7.78
2022-08-04T03:24:00.661Z,8.90
2022-08-04T03:27:04.698Z,9.90
2022-08-04T03:29:55.316Z,10.45
2022-08-04T03:32:49.758Z,7.80
2022-08-04T03:35:34.740Z,8.20
2022-08-04T03:38:22.897Z,10.02
2022-08-04T03:40:55.291Z,10.13
2022-08-04T03:43:58.325Z,9.95
2022-08-04T03:46:54.562Z,9.80
2022-08-04T03:49:45.970Z,7.15
2022-08-04T03:53:02.735Z,7.75
2022-08-04T03:55:40.851Z,9.05
2022-08-04T04:02:01.325Z,6.95
2022-08-04T04:04:47.440Z,8.65
2022-08-04T04:07:45.006Z,8.55
2022-08-04T04:10:29.519Z,6.78
2022-08-04T04:13:06.147Z,7.80
2022-08-04T04:16:01.024Z,8.88
2022-08-04T04:18:56.956Z,13.50
2022-08-04T04:21:54.191Z,7.57
2022-08-04T04:24:49.665Z,8.93
2022-08-04T04:27:33.631Z,8.20
2022-08-04T04:30:07.387Z,8.88
2022-08-04T04:32:55.599Z,9.25
2022-08-04T04:35:34.288Z,7.18
2022-08-04T04:38:34.539Z,7.70
2022-08-04T04:41:55.351Z,11.60
2022-08-04T04:45:12.975Z,9.45
2022-08-04T04:48:08.690Z,13.77
2022-08-04T04:50:55.788Z,9.75
2022-08-04T04:54:00.038Z,11.77
2022-08-04T04:56:43.889Z,6.40
2022-08-04T04:59:15.498Z,8.75
2022-08-04T05:01:53.639Z,9.15
2022-08-04T05:04:56.047Z,9.48
2022-08-04T05:07:25.069Z,11.55
2022-08-04T05:10:24.159Z,7.63
2022-08-04T05:14:32.113Z,9.52
2022-08-04T05:15:42.625Z,8.25
2022-08-04T05:18:14.537Z,10.40
2022-08-04T05:20:46.316Z,8.05
2022-08-04T05:23:17.008Z,8.43
2022-08-04T05:25:50.074Z,12.60
2022-08-04T05:28:32.258Z,10.23
2022-08-04T05:31:06.240Z,11.32
2022-08-04T05:33:39.472Z,8.65
2022-08-04T05:36:20.708Z,10.55
2022-08-04T05:38:59.805Z,8.18
2022-08-04T05:41:46.007Z,9.15
2022-08-04T05:44:21.350Z,10.07
2022-08-04T05:46:54.049Z,16.17
2022-08-04T05:49:23.182Z,16.40
2022-08-04T05:51:51.101Z,12.73
2022-08-04T05:54:19.027Z,7.35
2022-08-04T05:56:46.557Z,12.45
2022-08-04T05:59:14.551Z,11.25
2022-08-04T06:01:55.967Z,12.02
2022-08-04T06:04:27.837Z,9.95
2022-08-04T06:06:55.093Z,10.88
2022-08-04T06:09:21.524Z,10.87
2022-08-04T06:12:01.801Z,14.82
2022-08-04T06:14:37.380Z,6.35
2022-08-04T06:18:33.523Z,10.93
2022-08-04T06:20:01.048Z,7.90
2022-08-04T06:22:44.519Z,12.13
2022-08-04T06:25:15.675Z,8.30
2022-08-04T06:27:43.023Z,10.15
2022-08-04T06:30:14.196Z,11.43
2022-08-04T06:33:03.799Z,11.25
2022-08-04T06:35:32.410Z,14.02
2022-08-04T06:38:01.297Z,13.07
2022-08-04T06:40:32.533Z,13.55
2022-08-04T06:43:07.140Z,11.32
2022-08-04T06:45:35.673Z,8.98
2022-08-04T06:48:03.695Z,9.85
2022-08-04T06:53:18.924Z,11.55
2022-08-04T06:55:47.310Z,10.82
2022-08-04T06:58:15.543Z,13.48
2022-08-04T07:00:44.551Z,10.27
2022-08-04T07:03:11.796Z,15.38
2022-08-04T07:05:40.074Z,11.50
2022-08-04T07:08:08.041Z,7.60
2022-08-04T07:13:01.616Z,11.45
2022-08-04T07:15:28.518Z,12.97
2022-08-04T07:17:59.922Z,13.52
2022-08-04T07:20:35.088Z,16.70
2022-08-04T07:23:06.193Z,13.45
2022-08-04T07:25:59.159Z,11.65
2022-08-04T07:28:28.318Z,12.70
2022-08-04T07:30:56.576Z,13.13
2022-08-04T07:33:24.350Z,9.52
2022-08-04T07:36:05.426Z,13.50
2022-08-04T07:38:48.165Z,15.02
2022-08-04T07:41:37.791Z,12.15
2022-08-04T07:44:05.135Z,13.35
2022-08-04T07:46:31.746Z,12.60
2022-08-04T07:49:00.377Z,12.48
2022-08-04T07:51:27.578Z,9.45
2022-08-04T07:53:56.711Z,10.15
2022-08-04T07:56:24.547Z,16.48
2022-08-04T07:58:50.968Z,8.93
2022-08-04T08:01:18.965Z,14.65
2022-08-04T08:03:46.425Z,19.92
2022-08-04T08:06:17.435Z,12.18
2022-08-04T08:09:12.072Z,14.95
2022-08-04T08:12:35.301Z,11.23
2022-08-04T08:14:31.601Z,17.15
2022-08-04T08:17:00.328Z,13.10
2022-08-04T08:19:26.756Z,9.82
2022-08-04T08:21:59.696Z,10.23
2022-08-04T08:24:27.946Z,12.20
2022-08-04T08:26:55.870Z,10.52
2022-08-04T08:31:57.159Z,15.90
2022-08-04T08:34:28.873Z,15.98
2022-08-04T08:37:04.265Z,11.95
2022-08-04T08:40:10.855Z,10.18
2022-08-04T08:44:05.341Z,16.85
2022-08-04T08:46:45.256Z,9.82
2022-08-04T08:50:02.298Z,15.02
2022-08-04T08:52:56.333Z,10.88
2022-08-04T08:55:43.157Z,12.82
2022-08-04T08:58:12.862Z,6.75
2022-08-04T09:00:57.982Z,9.98
2022-08-04T09:03:24.321Z,11.05
2022-08-04T09:06:19.768Z,14.85
2022-08-04T09:09:19.311Z,15.65
2022-08-04T09:11:56.191Z,9.32
2022-08-04T09:14:35.206Z,10.65
2022-08-04T09:17:05.305Z,13.98
2022-08-04T09:19:42.370Z,9.55
2022-08-04T09:22:20.410Z,11.82
2022-08-04T09:25:01.328Z,10.45
2022-08-04T09:27:40.516Z,13.60
2022-08-04T09:30:12.244Z,12.40
2022-08-04T09:32:38.574Z,11.25
2022-08-04T09:35:37.386Z,11.73
2022-08-04T09:38:27.307Z,13.13
2022-08-04T09:41:24.829Z,16.48
2022-08-04T09:44:49.207Z,15.55
2022-08-04T09:47:40.539Z,10.60
2022-08-04T09:50:34.202Z,11.23
2022-08-04T09:53:25.578Z,10.32
2022-08-04T09:56:28.089Z,12.70
2022-08-04T09:59:11.020Z,14.00
2022-08-04T10:01:42.265Z,12.20
2022-08-04T10:04:12.337Z,8.90
2022-08-04T10:07:16.406Z,9.80
2022-08-04T10:10:01.568Z,12.85
2022-08-04T10:13:05.703Z,8.35
2022-08-04T10:15:43.388Z,10.20
2022-08-04T10:18:30.992Z,8.82
2022-08-04T10:21:10.190Z,10.90
2022-08-04T10:23:56.299Z,7.97
2022-08-04T10:26:45.244Z,7.25
2022-08-04T10:29:36.583Z,10.73
2022-08-04T10:32:21.204Z,9.95
2022-08-04T10:35:03.032Z,8.23
2022-08-04T10:37:59.998Z,9.30
2022-08-04T10:40:45.259Z,8.00
2022-08-04T10:43:36.111Z,5.50
2022-08-04T10:46:13.205Z,8.35
2022-08-04T10:48:47.138Z,8.68
2022-08-04T10:51:58.251Z,12.02
2022-08-04T10:54:34.551Z,6.97
2022-08-04T10:57:08.589Z,11.60
2022-08-04T10:59:40.725Z,9.35
2022-08-04T11:02:30.206Z,8.10
2022-08-04T11:05:23.512Z,6.53
2022-08-04T11:07:55.338Z,8.25
2022-08-04T11:10:25.544Z,14.40
2022-08-04T11:12:58.118Z,8.70
2022-08-04T11:15:38.199Z,13.40
2022-08-04T11:18:16.956Z,10.90
2022-08-04T11:20:52.883Z,7.75
2022-08-04T11:23:26.644Z,13.07
2022-08-04T11:26:00.676Z,10.38
2022-08-04T11:29:03.203Z,12.70
2022-08-04T11:31:40.518Z,13.93
2022-08-04T11:34:22.992Z,15.00
2022-08-04T11:37:17.479Z,8.77
2022-08-04T11:39:48.762Z,12.93
2022-08-04T11:42:21.059Z,10.32
2022-08-04T11:44:51.332Z,9.55
2022-08-04T11:47:32.901Z,11.63
2022-08-04T11:50:03.024Z,7.68
2022-08-04T11:52:30.742Z,9.55
2022-08-04T11:54:59.030Z,12.23
2022-08-04T11:57:35.906Z,9.50
2022-08-04T12:00:07.395Z,8.00
2022-08-04T12:02:49.518Z,8.02
2022-08-04T12:05:23.456Z,11.07
2022-08-04T12:08:25.346Z,11.20
2022-08-04T12:11:09.414Z,12.55
2022-08-04T12:14:20.681Z,6.22
2022-08-04T12:17:06.596Z,8.73
2022-08-04T12:20:03.288Z,17.02
2022-08-04T12:22:29.799Z,7.80
2022-08-04T12:25:09.515Z,6.50
2022-08-04T12:27:49.225Z,10.45
2022-08-04T12:30:57.555Z,9.20
2022-08-04T12:33:20.506Z,11.43
2022-08-04T12:36:05.298Z,9.43
2022-08-04T12:38:44.721Z,11.48
2022-08-04T12:41:16.085Z,9.80
2022-08-04T12:43:42.917Z,7.85
2022-08-04T12:46:11.808Z,12.52
2022-08-04T12:48:39.810Z,7.40
2022-08-04T12:52:06.049Z,8.82
2022-08-04T12:53:57.756Z,8.95
2022-08-04T12:56:28.306Z,7.63
2022-08-04T12:59:02.588Z,6.05
2022-08-04T13:02:07.977Z,5.38
2022-08-04T13:04:21.756Z,6.45
2022-08-04T13:07:00.355Z,7.18
2022-08-04T13:09:33.035Z,8.45
2022-08-04T13:12:03.620Z,6.40
2022-08-04T13:14:35.526Z,5.25
2022-08-04T13:17:02.016Z,10.32
2022-08-04T13:19:30.603Z,8.20
2022-08-04T13:22:03.031Z,8.75
2022-08-04T13:24:32.372Z,7.40
2022-08-04T13:27:08.907Z,8.00
2022-08-04T13:29:58.013Z,12.02
2022-08-04T13:32:28.817Z,7.60
2022-08-04T13:34:56.467Z,11.25
2022-08-04T13:37:33.400Z,6.70
2022-08-04T13:40:00.402Z,9.40
2022-08-04T13:42:27.553Z,8.02
2022-08-04T13:44:57.804Z,6.97
2022-08-04T13:47:29.510Z,8.90
2022-08-04T13:50:30.438Z,9.00
2022-08-04T13:52:59.448Z,9.20
2022-08-04T13:55:33.320Z,6.30
2022-08-04T13:58:10.429Z,9.65
2022-08-04T14:00:42.900Z,8.48
2022-08-04T14:03:23.376Z,7.53
2022-08-04T14:06:18.152Z,8.88
2022-08-04T14:08:52.067Z,5.70
2022-08-04T14:12:09.635Z,8.82
2022-08-04T14:14:29.821Z,7.38
2022-08-04T14:16:59.444Z,11.60
2022-08-04T14:19:31.047Z,8.82
2022-08-04T14:22:02.827Z,5.70
2022-08-04T14:24:29.443Z,8.23
2022-08-04T14:27:00.344Z,6.85
2022-08-04T14:29:36.539Z,7.82
2022-08-04T14:32:12.452Z,7.40
2022-08-04T14:34:44.758Z,6.05
2022-08-04T14:37:20.338Z,6.35
2022-08-04T14:40:08.441Z,7.15
2022-08-04T14:42:54.747Z,7.68
2022-08-04T14:45:32.928Z,8.45
2022-08-04T14:48:00.682Z,7.20
2022-08-04T14:50:40.634Z,7.00
2022-08-04T14:53:29.460Z,8.25
2022-08-04T14:56:00.022Z,5.95
2022-08-04T14:58:39.403Z,5.63
2022-08-04T15:01:12.279Z,6.68
2022-08-04T15:03:50.739Z,4.97
2022-08-04T15:06:27.233Z,8.13
2022-08-04T15:08:56.302Z,6.22
2022-08-04T15:11:24.779Z,6.35
2022-08-04T15:13:56.752Z,8.40
2022-08-04T15:16:24.850Z,5.38
2022-08-04T15:18:54.549Z,5.13
2022-08-04T15:21:22.412Z,4.03
2022-08-04T15:26:23.448Z,5.07
2022-08-04T15:28:56.008Z,2.97
2022-08-04T15:32:05.919Z,7.15
2022-08-04T15:34:11.245Z,4.35
2022-08-04T15:36:56.476Z,6.80
2022-08-04T15:39:51.448Z,7.82
2022-08-04T15:42:32.283Z,6.97
2022-08-04T15:45:15.846Z,3.97
2022-08-04T15:47:42.302Z,4.10
2022-08-04T15:50:28.427Z,3.60
2022-08-04T15:53:00.616Z,7.47
2022-08-04T15:55:38.919Z,5.70
2022-08-04T16:01:05.900Z,7.78
2022-08-04T16:03:58.134Z,5.78
2022-08-04T16:06:21.479Z,5.82
2022-08-04T16:08:57.735Z,4.05
2022-08-04T16:11:31.685Z,4.95
2022-08-04T16:13:58.484Z,5.88
2022-08-04T16:16:36.991Z,6.13
2022-08-04T16:19:13.272Z,6.13
2022-08-04T16:21:54.488Z,4.25
2022-08-04T16:24:38.817Z,4.18
2022-08-04T16:27:08.188Z,3.45
2022-08-04T16:29:42.845Z,7.72
2022-08-04T16:32:17.938Z,5.25
2022-08-04T16:34:56.730Z,3.80
2022-08-04T16:37:29.308Z,6.55
2022-08-04T16:40:33.644Z,5.75
2022-08-04T16:43:16.284Z,4.32
2022-08-04T16:45:45.673Z,5.35
2022-08-04T16:48:13.280Z,5.15
2022-08-04T16:51:04.697Z,4.03
2022-08-04T16:54:03.028Z,8.45
2022-08-04T16:56:29.659Z,4.90
2022-08-04T16:58:56.935Z,5.70
2022-08-04T17:01:32.444Z,3.80
2022-08-04T17:04:04.828Z,5.68
2022-08-04T17:06:42.961Z,4.03
2022-08-04T17:09:15.073Z,4.70
2022-08-04T17:11:43.258Z,6.45
2022-08-04T17:14:10.264Z,3.03
2022-08-04T17:16:40.187Z,4.03
2022-08-04T17:19:24.235Z,4.47
2022-08-04T17:22:05.765Z,6.30
2022-08-04T17:24:38.520Z,5.38
2022-08-04T17:28:08.538Z,6.80
2022-08-04T17:29:53.020Z,3.50
2022-08-04T17:32:21.547Z,4.63
2022-08-04T17:34:53.824Z,4.35
2022-08-04T17:37:51.790Z,2.80
2022-08-04T17:40:14.448Z,5.47
2022-08-04T17:42:45.700Z,3.13
2022-08-04T17:45:50.918Z,6.30
2022-08-04T17:48:09.072Z,2.90
2022-08-04T17:50:36.365Z,4.40
2022-08-04T17:53:12.316Z,11.00
2022-08-04T17:55:43.669Z,4.15
2022-08-04T17:58:27.043Z,6.63
2022-08-04T18:01:24.326Z,4.07
2022-08-04T18:03:53.404Z,5.07
2022-08-04T18:06:21.217Z,4.05
2022-08-04T18:08:58.062Z,5.03
2022-08-04T18:11:34.809Z,3.33
2022-08-04T18:14:10.132Z,3.38
2022-08-04T18:16:44.564Z,3.50
2022-08-04T18:19:13.558Z,5.38
2022-08-04T18:21:46.416Z,4.40
2022-08-04T18:24:35.658Z,4.30
2022-08-04T18:27:18.220Z,3.42
2022-08-04T18:30:14.673Z,4.57
2022-08-04T18:32:33.196Z,2.47
2022-08-04T18:35:05.100Z,5.55
2022-08-04T18:38:11.453Z,4.43
2022-08-04T18:43:07.627Z,4.37
2022-08-04T18:45:40.860Z,6.60
2022-08-04T18:48:17.432Z,3.03
2022-08-04T18:53:34.805Z,4.60
2022-08-04T18:56:02.888Z,2.63
2022-08-04T18:58:29.602Z,3.38
2022-08-04T19:01:00.273Z,9.88
2022-08-04T19:03:33.247Z,3.28
2022-08-04T19:06:01.400Z,4.85
2022-08-04T19:08:33.372Z,3.85
2022-08-04T19:11:02.098Z,3.78
2022-08-04T19:13:54.701Z,6.85
2022-08-04T19:16:25.308Z,3.88
2022-08-04T19:18:51.707Z,4.88
2022-08-04T19:21:18.801Z,5.45
2022-08-04T19:24:26.301Z,2.80
2022-08-04T19:26:31.535Z,5.15
2022-08-04T19:28:58.817Z,5.70
2022-08-04T19:31:34.351Z,4.38
2022-08-04T19:34:08.367Z,8.20
2022-08-04T19:36:35.100Z,7.83
2022-08-04T19:39:09.234Z,6.20
2022-08-04T19:42:04.497Z,4.60
2022-08-04T19:44:24.871Z,6.40
2022-08-04T19:46:55.946Z,3.58
2022-08-04T19:50:04.507Z,4.00
2022-08-04T19:52:13.499Z,4.85
2022-08-04T19:54:41.336Z,4.65
2022-08-04T19:57:07.985Z,4.65
2022-08-04T19:59:35.450Z,2.83
2022-08-04T20:02:01.845Z,3.60
2022-08-04T20:04:28.475Z,4.50
2022-08-04T20:06:57.723Z,4.78
2022-08-04T20:09:27.109Z,4.72
2022-08-04T20:11:57.317Z,4.28
2022-08-04T20:17:15.351Z,3.58
2022-08-04T20:19:51.517Z,7.25
2022-08-04T20:22:52.191Z,5.95
2022-08-04T20:25:18.239Z,4.63
2022-08-04T20:27:59.844Z,5.25
2022-08-04T20:30:28.300Z,7.25
2022-08-04T20:32:54.979Z,5.25
2022-08-04T20:35:28.621Z,4.50
2022-08-04T20:40:41.692Z,5.25
2022-08-04T20:43:08.138Z,5.20
2022-08-04T20:45:57.034Z,3.70
2022-08-04T20:48:21.675Z,5.40
2022-08-04T20:50:52.109Z,5.88
2022-08-04T20:53:18.499Z,4.05
2022-08-04T20:55:55.049Z,4.88
2022-08-04T20:58:27.601Z,5.00
2022-08-04T21:00:55.289Z,6.88
2022-08-04T21:03:49.527Z,6.03
2022-08-04T21:06:08.805Z,4.78
2022-08-04T21:08:35.176Z,7.20
2022-08-04T21:11:03.041Z,5.05
2022-08-04T21:13:51.981Z,5.38
2022-08-04T21:16:53.854Z,4.57
2022-08-04T21:19:05.894Z,5.78
2022-08-04T21:21:40.735Z,4.95
2022-08-04T21:24:07.673Z,3.28
2022-08-04T21:26:35.147Z,4.20
2022-08-04T21:29:04.185Z,4.28
2022-08-04T21:31:30.678Z,4.75
2022-08-04T21:34:03.240Z,7.72
2022-08-04T21:36:30.018Z,7.82
2022-08-04T21:38:57.565Z,6.35
2022-08-04T21:41:27.180Z,5.50
2022-08-04T21:43:54.264Z,5.72
2022-08-04T21:46:20.657Z,5.18
2022-08-04T21:48:48.779Z,7.53
2022-08-04T21:51:57.096Z,8.38
2022-08-04T21:54:07.727Z,8.48
2022-08-04T21:56:35.097Z,4.15
2022-08-04T21:59:05.678Z,4.78
2022-08-04T22:01:49.857Z,8.48
2022-08-04T22:04:19.016Z,7.10
2022-08-04T22:06:47.666Z,9.10
2022-08-04T22:09:18.658Z,9.13
2022-08-04T22:11:51.061Z,7.03
2022-08-04T22:14:27.618Z,6.15
2022-08-04T22:16:56.531Z,6.38
2022-08-04T22:19:39.852Z,10.90
2022-08-04T22:22:09.917Z,7.17
2022-08-04T22:24:40.214Z,7.53
2022-08-04T22:27:10.583Z,6.30
2022-08-04T22:29:39.196Z,5.03
2022-08-04T22:32:06.320Z,5.20
2022-08-04T22:34:40.047Z,4.97
2022-08-04T22:37:35.477Z,4.82
2022-08-04T22:39:58.619Z,4.03
2022-08-04T22:42:25.856Z,7.13
2022-08-04T22:44:52.227Z,4.30
2022-08-04T22:47:20.538Z,5.43
2022-08-04T22:50:01.662Z,5.40
2022-08-04T22:52:36.378Z,6.38
2022-08-04T22:55:16.259Z,7.38
2022-08-04T22:57:43.289Z,4.93
2022-08-04T23:00:29.334Z,5.65
2022-08-04T23:02:55.763Z,6.57
2022-08-04T23:05:23.047Z,5.80
2022-08-04T23:07:55.530Z,6.15
2022-08-04T23:10:24.401Z,5.37
2022-08-04T23:12:51.046Z,7.20
2022-08-04T23:15:18.186Z,4.28
2022-08-04T23:17:47.992Z,3.93
2022-08-04T23:20:23.130Z,7.80
2022-08-04T23:22:49.826Z,5.43
2022-08-04T23:25:32.998Z,7.45
2022-08-04T23:28:08.937Z,5.13
2022-08-04T23:30:35.591Z,5.68
2022-08-04T23:33:02.511Z,6.57
2022-08-04T23:35:31.622Z,5.13
2022-08-04T23:38:00.015Z,6.10
2022-08-04T23:40:50.429Z,6.68
2022-08-04T23:43:18.141Z,5.18
2022-08-04T23:46:06.512Z,7.93
2022-08-04T23:48:39.022Z,5.88
2022-08-04T23:51:14.102Z,4.60
2022-08-04T23:54:03.724Z,7.07
2022-08-04T23:56:29.575Z,5.57
2022-08-04T23:58:56.020Z,4.72
